createdAt,value
2023-01-04T00:01:18.421Z,99857.31
2023-01-04T00:06:20.631Z,99862.56
2023-01-04T00:11:23.845Z,99862.63
2023-01-04T00:16:28.277Z,99857.31
2023-01-04T00:21:30.675Z,99860.88
2023-01-04T00:26:33.737Z,99870.47
2023-01-04T00:31:35.949Z,99869.69
2023-01-04T00:36:37.662Z,99862.66
2023-01-04T00:42:00.971Z,99849.50
2023-01-04T00:47:04.223Z,99840.69
2023-01-04T00:52:06.805Z,99840.66
2023-01-04T00:57:09.109Z,99835.44
2023-01-04T01:02:10.942Z,99851.22
2023-01-04T01:07:12.696Z,99847.72
2023-01-04T01:12:14.363Z,99843.34
2023-01-04T01:17:16.554Z,99845.06
2023-01-04T01:22:18.289Z,99853.84
2023-01-04T01:27:19.937Z,99866.13
2023-01-04T01:32:21.592Z,99863.50
2023-01-04T01:37:23.247Z,99855.66
2023-01-04T01:42:24.968Z,99858.25
2023-01-04T01:47:39.730Z,99852.91
2023-01-04T01:52:41.647Z,99839.84
2023-01-04T01:57:44.347Z,99841.63
2023-01-04T02:03:47.223Z,99838.00
2023-01-04T02:08:49.164Z,99832.81
2023-01-04T02:14:09.824Z,99833.59
2023-01-04T02:19:48.470Z,99837.97
2023-01-04T02:25:23.774Z,99831.09
2023-01-04T02:30:52.992Z,99824.94
2023-01-04T02:36:14.417Z,99817.88
2023-01-04T02:41:25.044Z,99823.16
2023-01-04T02:46:32.281Z,99830.19
2023-01-04T02:51:36.836Z,99829.25
2023-01-04T02:56:41.336Z,99828.44
2023-01-04T03:02:07.664Z,99828.41
2023-01-04T03:07:09.308Z,99831.88
2023-01-04T03:12:33.013Z,99833.69
2023-01-04T03:17:42.802Z,99844.19
2023-01-04T03:23:12.368Z,99847.59
2023-01-04T03:28:36.448Z,99845.09
2023-01-04T03:34:12.267Z,99832.81
2023-01-04T03:39:55.235Z,99827.56
2023-01-04T03:45:30.333Z,99826.56
2023-01-04T03:50:41.358Z,99829.25
2023-01-04T03:55:44.955Z,99815.19
2023-01-04T04:00:47.674Z,99823.19
2023-01-04T04:06:08.070Z,99824.84
2023-01-04T04:11:28.289Z,99816.97
2023-01-04T04:16:30.072Z,99813.41
2023-01-04T04:21:31.788Z,99818.78
2023-01-04T04:26:33.707Z,99827.56
2023-01-04T04:31:35.438Z,99821.38
2023-01-04T04:36:37.271Z,99817.84
2023-01-04T04:41:39.822Z,99813.50
2023-01-04T04:46:42.215Z,99808.19
2023-01-04T04:51:45.129Z,99805.59
2023-01-04T04:56:48.281Z,99823.09
2023-01-04T05:01:50.192Z,99830.06
2023-01-04T05:06:53.070Z,99825.63
2023-01-04T05:12:13.412Z,99820.47
2023-01-04T05:17:15.092Z,99823.94
2023-01-04T05:22:16.742Z,99829.16
2023-01-04T05:27:18.464Z,99826.56
2023-01-04T05:32:20.146Z,99823.91
2023-01-04T05:37:21.859Z,99829.13
2023-01-04T05:42:26.405Z,99820.34
2023-01-04T05:47:28.884Z,99812.47
2023-01-04T05:52:30.594Z,99824.75
2023-01-04T05:57:32.247Z,99823.06
2023-01-04T06:02:34.209Z,99816.97
2023-01-04T06:07:36.277Z,99837.09
2023-01-04T06:12:38.497Z,99830.97
2023-01-04T06:17:40.440Z,99824.84
2023-01-04T06:22:43.139Z,99830.03
2023-01-04T06:27:44.803Z,99835.38
2023-01-04T06:32:46.528Z,99844.09
2023-01-04T06:37:48.262Z,99835.34
2023-01-04T06:42:49.991Z,99831.81
2023-01-04T06:47:51.680Z,99827.50
2023-01-04T06:52:53.406Z,99826.56
2023-01-04T06:57:59.532Z,99830.03
2023-01-04T07:03:14.990Z,99832.72
2023-01-04T07:08:17.868Z,99836.22
2023-01-04T07:13:19.531Z,99838.81
2023-01-04T07:18:21.471Z,99831.84
2023-01-04T07:23:23.105Z,99834.44
2023-01-04T07:28:43.298Z,99836.22
2023-01-04T07:33:45.024Z,99839.72
2023-01-04T07:38:46.742Z,99838.84
2023-01-04T07:43:48.407Z,99837.94
2023-01-04T07:48:50.047Z,99842.31
2023-01-04T07:53:51.711Z,99840.53
2023-01-04T07:58:57.217Z,99842.25
2023-01-04T08:03:59.018Z,99835.13
2023-01-04T08:09:01.218Z,99836.88
2023-01-04T08:14:03.421Z,99829.09
2023-01-04T08:19:13.607Z,99828.19
2023-01-04T08:24:17.892Z,99824.63
2023-01-04T08:29:19.621Z,99828.16
2023-01-04T08:34:21.317Z,99819.31
2023-01-04T08:39:22.993Z,99809.69
2023-01-04T08:44:25.983Z,99806.13
2023-01-04T08:49:28.088Z,99805.28
2023-01-04T08:54:29.757Z,99811.38
2023-01-04T08:59:31.714Z,99801.81
2023-01-04T09:04:33.694Z,99801.69
2023-01-04T09:09:35.410Z,99803.38
2023-01-04T09:14:37.172Z,99802.41
2023-01-04T09:19:38.966Z,99784.88
2023-01-04T09:24:40.687Z,99770.38
2023-01-04T09:29:42.371Z,99772.97
2023-01-04T09:34:45.023Z,99763.31
2023-01-04T09:39:47.686Z,99758.75
2023-01-04T09:50:32.254Z,99735.75
2023-01-04T09:55:41.449Z,99721.91
2023-01-04T10:00:52.038Z,99717.41
2023-01-04T10:05:56.116Z,99706.75
2023-01-04T10:11:09.981Z,99692.22
2023-01-04T10:17:01.833Z,99695.78
2023-01-04T10:21:55.356Z,99682.63
2023-01-04T10:27:18.270Z,99679.28
2023-01-04T10:32:29.612Z,99676.84
2023-01-04T10:37:35.682Z,99671.94
2023-01-04T10:42:47.052Z,99665.69
2023-01-04T10:48:10.737Z,99640.56
2023-01-04T10:53:26.191Z,99628.53
2023-01-04T10:58:43.557Z,99626.59
2023-01-04T11:04:02.242Z,99608.44
2023-01-04T11:09:12.456Z,99594.25
2023-01-04T11:14:15.595Z,99584.94
2023-01-04T11:19:17.362Z,99576.56
2023-01-04T11:24:34.693Z,99560.00
2023-01-04T11:29:46.406Z,99556.53
2023-01-04T11:34:57.692Z,99554.31
2023-01-04T11:40:17.634Z,99557.56
2023-01-04T11:45:25.792Z,99558.81
2023-01-04T11:50:42.954Z,99545.78
2023-01-04T11:55:44.789Z,99540.66
2023-01-04T12:00:56.009Z,99532.38
2023-01-04T12:05:58.404Z,99518.38
2023-01-04T12:11:02.929Z,99508.19
2023-01-04T12:16:23.048Z,99499.72
2023-01-04T12:21:26.878Z,99496.19
2023-01-04T12:26:28.606Z,99485.66
2023-01-04T12:31:32.927Z,99471.06
2023-01-04T12:36:38.433Z,99458.69
2023-01-04T12:41:40.064Z,99450.53
2023-01-04T12:47:00.863Z,99434.88
2023-01-04T12:57:38.215Z,99426.03
2023-01-04T13:02:50.756Z,99413.81
2023-01-04T13:07:57.135Z,99420.72
2023-01-04T13:13:21.083Z,99414.06
2023-01-04T13:18:28.782Z,99402.94
2023-01-04T13:23:30.857Z,99404.56
2023-01-04T13:28:32.573Z,99400.31
2023-01-04T13:33:34.604Z,99396.72
2023-01-04T13:38:39.673Z,99401.34
2023-01-04T13:43:57.627Z,99391.78
2023-01-04T13:49:02.682Z,99388.09
2023-01-04T13:54:07.578Z,99382.53
2023-01-04T13:59:09.832Z,99378.00
2023-01-04T14:04:25.481Z,99387.75
2023-01-04T14:09:35.679Z,99381.75
2023-01-04T14:15:01.904Z,99367.94
2023-01-04T14:20:15.608Z,99356.72
2023-01-04T14:25:42.047Z,99359.22
2023-01-04T14:30:43.983Z,99350.84
2023-01-04T14:35:48.888Z,99345.34
2023-01-04T14:40:51.896Z,99339.78
2023-01-04T14:45:53.710Z,99344.00
2023-01-04T14:50:55.968Z,99340.31
2023-01-04T14:55:57.836Z,99335.50
2023-01-04T15:00:59.605Z,99337.66
2023-01-04T15:06:01.296Z,99330.28
2023-01-04T15:11:03.036Z,99320.19
2023-01-04T15:16:05.481Z,99330.59
2023-01-04T15:21:07.555Z,99316.22
2023-01-04T15:26:11.478Z,99325.47
2023-01-04T15:31:14.374Z,99326.06
2023-01-04T15:36:23.700Z,99332.41
2023-01-04T15:41:43.833Z,99321.50
2023-01-04T15:46:45.671Z,99310.31
2023-01-04T15:51:47.415Z,99315.59
2023-01-04T15:56:49.063Z,99306.00
2023-01-04T16:01:50.930Z,99300.41
2023-01-04T16:06:53.499Z,99304.13
2023-01-04T16:12:13.746Z,99304.69
2023-01-04T16:17:15.437Z,99310.34
2023-01-04T16:22:17.136Z,99301.66
2023-01-04T16:27:19.087Z,99306.75
2023-01-04T16:32:20.841Z,99304.94
2023-01-04T16:37:26.577Z,99305.47
2023-01-04T16:42:28.343Z,99296.00
2023-01-04T16:47:37.487Z,99299.69
2023-01-04T16:52:40.162Z,99291.06
2023-01-04T16:57:41.788Z,99291.09
2023-01-04T17:02:43.658Z,99300.69
2023-01-04T17:07:45.456Z,99295.41
2023-01-04T17:12:48.538Z,99306.00
2023-01-04T17:17:50.882Z,99300.91
2023-01-04T17:22:52.632Z,99296.50
2023-01-04T17:27:54.253Z,99283.38
2023-01-04T17:32:55.903Z,99294.88
2023-01-04T17:37:57.865Z,99280.03
2023-01-04T17:43:00.052Z,99273.94
2023-01-04T17:48:01.959Z,99265.31
2023-01-04T17:53:03.742Z,99256.50
2023-01-04T17:58:09.751Z,99245.22
2023-01-04T18:03:14.867Z,99239.91
2023-01-04T18:08:16.803Z,99241.56
2023-01-04T18:13:18.647Z,99236.41
2023-01-04T18:18:20.433Z,99245.19
2023-01-04T18:23:25.672Z,99226.56
2023-01-04T18:28:28.679Z,99224.75
2023-01-04T18:33:31.197Z,99218.72
2023-01-04T18:38:33.936Z,99210.72
2023-01-04T18:43:37.423Z,99201.72
2023-01-04T18:48:40.048Z,99195.06
2023-01-04T18:53:42.279Z,99190.66
2023-01-04T18:58:44.654Z,99178.53
2023-01-04T19:03:48.903Z,99180.41
2023-01-04T19:08:57.181Z,99176.09
2023-01-04T19:14:01.873Z,99175.34
2023-01-04T19:19:04.360Z,99167.56
2023-01-04T19:24:06.853Z,99151.75
2023-01-04T19:29:09.292Z,99137.69
2023-01-04T19:34:11.842Z,99136.03
2023-01-04T19:39:14.287Z,99123.84
2023-01-04T19:44:17.173Z,99134.38
2023-01-04T19:49:19.449Z,99140.63
2023-01-04T19:54:25.559Z,99143.31
2023-01-04T19:59:29.927Z,99145.97
2023-01-04T20:04:32.180Z,99140.19
2023-01-04T20:09:34.996Z,99144.25
2023-01-04T20:14:39.455Z,99141.75
2023-01-04T20:19:41.516Z,99148.69
2023-01-04T20:24:43.994Z,99129.47
2023-01-04T20:29:46.665Z,99131.28
2023-01-04T20:34:49.224Z,99133.06
2023-01-04T20:39:51.935Z,99129.50
2023-01-04T20:44:54.002Z,99119.03
2023-01-04T20:49:57.801Z,99100.75
2023-01-04T20:55:00.208Z,99080.69
2023-01-04T21:00:02.466Z,99082.53
2023-01-04T21:05:04.895Z,99081.63
2023-01-04T21:10:08.552Z,99080.84
2023-01-04T21:15:10.975Z,99068.75
2023-01-04T21:20:14.251Z,99047.69
2023-01-04T21:25:16.013Z,99058.22
2023-01-04T21:30:17.901Z,99049.50
2023-01-04T21:35:19.643Z,99053.78
2023-01-04T21:40:21.986Z,99046.00
2023-01-04T21:45:24.560Z,99047.03
2023-01-04T21:50:30.727Z,99039.97
2023-01-04T21:55:34.851Z,99029.69
2023-01-04T22:00:36.910Z,99023.50
2023-01-04T22:05:38.589Z,99005.22
2023-01-04T22:10:40.311Z,99008.59
2023-01-04T22:15:42.093Z,98990.44
2023-01-04T22:20:44.653Z,98986.09
2023-01-04T22:25:46.294Z,98978.03
2023-01-04T22:30:47.983Z,98977.22
2023-01-04T22:35:49.788Z,98974.00
2023-01-04T22:40:51.476Z,98973.28
2023-01-04T22:46:00.514Z,98963.78
2023-01-04T22:51:10.864Z,98969.88
2023-01-04T22:56:19.310Z,98955.59
2023-01-04T23:01:28.273Z,98948.59
2023-01-04T23:06:32.219Z,98951.34
2023-01-04T23:11:35.824Z,98947.81
2023-01-04T23:16:37.538Z,98937.34
2023-01-04T23:21:39.979Z,98933.75
2023-01-04T23:26:42.357Z,98912.22
2023-01-04T23:31:44.116Z,98913.16
2023-01-04T23:36:45.929Z,98902.81
2023-01-04T23:41:48.086Z,98892.03
2023-01-04T23:46:56.410Z,98879.72
2023-01-04T23:51:58.706Z,98877.25
2023-01-04T23:57:00.865Z,98859.69
